createdAt,value
2023-04-15T00:04:24.196Z,1007.1
2023-04-15T00:06:52.446Z,1007
2023-04-15T00:09:20.708Z,1006.9
2023-04-15T00:11:48.962Z,1006.9
2023-04-15T00:14:17.222Z,1006.8
2023-04-15T00:16:45.479Z,1006.8
2023-04-15T00:19:13.735Z,1006.8
2023-04-15T00:21:41.985Z,1006.8
2023-04-15T00:22:56.717Z,1006.8
2023-04-15T00:24:10.271Z,1006.7
2023-04-15T00:26:38.523Z,1006.7
2023-04-15T00:29:06.777Z,1006.7
2023-04-15T00:31:35.041Z,1006.6
2023-04-15T00:36:31.552Z,1006.6
2023-04-15T00:38:59.806Z,1006.7
2023-04-15T00:41:28.065Z,1006.7
2023-04-15T00:43:56.318Z,1006.7
2023-04-15T00:46:24.580Z,1006.7
2023-04-15T00:47:39.308Z,1006.7
2023-04-15T00:48:52.854Z,1006.7
2023-04-15T00:51:21.116Z,1006.7
2023-04-15T00:53:49.371Z,1006.7
2023-04-15T00:56:17.627Z,1006.7
2023-04-15T00:58:45.885Z,1006.7
2023-04-15T01:01:14.143Z,1006.7
2023-04-15T01:03:42.393Z,1006.7
2023-04-15T01:08:38.911Z,1006.7
2023-04-15T01:11:07.167Z,1006.8
2023-04-15T01:12:21.896Z,1006.7
2023-04-15T01:13:35.446Z,1006.7
2023-04-15T01:16:03.702Z,1006.7
2023-04-15T01:18:31.956Z,1006.7
2023-04-15T01:21:00.217Z,1006.7
2023-04-15T01:23:28.468Z,1006.7
2023-04-15T01:25:56.728Z,1006.7
2023-04-15T01:28:24.990Z,1006.7
2023-04-15T01:30:53.244Z,1006.7
2023-04-15T01:33:21.501Z,1006.6
2023-04-15T01:35:49.759Z,1006.7
2023-04-15T01:38:18.017Z,1006.6
2023-04-15T01:40:46.269Z,1006.7
2023-04-15T01:43:14.526Z,1006.6
2023-04-15T01:45:42.781Z,1006.6
2023-04-15T01:48:11.042Z,1006.5
2023-04-15T01:50:39.293Z,1006.5
2023-04-15T01:53:07.555Z,1006.5
2023-04-15T01:55:35.809Z,1006.5
2023-04-15T01:58:04.069Z,1006.4
2023-04-15T02:00:32.329Z,1006.4
2023-04-15T02:01:47.078Z,1006.4
2023-04-15T02:03:00.619Z,1006.4
2023-04-15T02:05:28.882Z,1006.4
2023-04-15T02:10:25.394Z,1006.4
2023-04-15T02:12:53.645Z,1006.3
2023-04-15T02:15:21.909Z,1006.4
2023-04-15T02:17:50.162Z,1006.3
2023-04-15T02:20:18.418Z,1006.3
2023-04-15T02:22:46.678Z,1006.3
2023-04-15T02:25:14.928Z,1006.3
2023-04-15T02:26:29.664Z,1006.3
2023-04-15T02:27:43.204Z,1006.3
2023-04-15T02:30:11.459Z,1006.3
2023-04-15T02:32:39.716Z,1006.3
2023-04-15T02:35:07.981Z,1006.3
2023-04-15T02:37:36.234Z,1006.4
2023-04-15T02:42:32.745Z,1006.4
2023-04-15T02:45:01.001Z,1006.4
2023-04-15T02:47:29.261Z,1006.4
2023-04-15T02:49:57.515Z,1006.3
2023-04-15T02:51:12.250Z,1006.3
2023-04-15T02:52:25.797Z,1006.3
2023-04-15T02:54:54.054Z,1006.3
2023-04-15T02:57:22.308Z,1006.3
2023-04-15T02:59:50.559Z,1006.2
2023-04-15T03:02:18.818Z,1006.3
2023-04-15T03:04:47.078Z,1006.2
2023-04-15T03:07:15.328Z,1006.2
2023-04-15T03:09:43.586Z,1006.2
2023-04-15T03:14:40.099Z,1006.2
2023-04-15T03:15:54.829Z,1006.3
2023-04-15T03:17:08.379Z,1006.3
2023-04-15T03:19:36.637Z,1006.3
2023-04-15T03:22:04.897Z,1006.3
2023-04-15T03:24:33.146Z,1006.4
2023-04-15T03:27:01.407Z,1006.4
2023-04-15T03:29:29.662Z,1006.4
2023-04-15T03:31:57.915Z,1006.4
2023-04-15T03:34:26.174Z,1006.4
2023-04-15T03:36:54.428Z,1006.3
2023-04-15T03:39:22.692Z,1006.4
2023-04-15T03:40:37.422Z,1006.3
2023-04-15T03:44:19.451Z,1006.3
2023-04-15T03:46:47.710Z,1006.2
2023-04-15T03:49:15.969Z,1006.1
2023-04-15T03:51:44.230Z,1006
2023-04-15T03:54:12.488Z,1006.1
2023-04-15T03:56:40.746Z,1006.1
2023-04-15T03:59:08.997Z,1006.1
2023-04-15T04:01:37.257Z,1006.1
2023-04-15T04:04:05.509Z,1006.3
2023-04-15T04:05:20.247Z,1006.4
2023-04-15T04:06:33.794Z,1006.4
2023-04-15T04:09:02.042Z,1006.4
2023-04-15T04:11:30.300Z,1006.4
2023-04-15T04:16:26.813Z,1006.4
2023-04-15T04:18:55.077Z,1006.4
2023-04-15T04:21:23.331Z,1006.4
2023-04-15T04:23:51.593Z,1006.4
2023-04-15T04:26:19.847Z,1006.3
2023-04-15T04:28:48.101Z,1006.4
2023-04-15T04:30:02.831Z,1006.4
2023-04-15T04:31:16.383Z,1006.4
2023-04-15T04:33:44.637Z,1006.4
2023-04-15T04:36:12.896Z,1006.4
2023-04-15T04:38:41.151Z,1006.5
2023-04-15T04:41:09.403Z,1006.5
2023-04-15T04:43:37.662Z,1006.5
2023-04-15T04:48:34.176Z,1006.5
2023-04-15T04:51:02.438Z,1006.5
2023-04-15T04:53:30.695Z,1006.5
2023-04-15T04:54:45.427Z,1006.4
2023-04-15T04:55:58.970Z,1006.5
2023-04-15T04:58:27.223Z,1006.5
2023-04-15T05:00:55.483Z,1006.5
2023-04-15T05:03:23.744Z,1006.4
2023-04-15T05:05:51.995Z,1006.4
2023-04-15T05:08:20.252Z,1006.5
2023-04-15T05:10:48.510Z,1006.4
2023-04-15T05:13:16.769Z,1006.4
2023-04-15T05:15:45.024Z,1006.3
2023-04-15T05:19:28.016Z,1006.4
2023-04-15T05:20:41.564Z,1006.4
2023-04-15T05:23:09.816Z,1006.4
2023-04-15T05:25:38.076Z,1006.4
2023-04-15T05:28:06.336Z,1006.3
2023-04-15T05:30:34.592Z,1006.3
2023-04-15T05:33:02.849Z,1006.4
2023-04-15T05:35:31.107Z,1006.5
2023-04-15T05:37:59.357Z,1006.5
2023-04-15T05:40:27.619Z,1006.5
2023-04-15T05:42:55.878Z,1006.5
2023-04-15T05:44:10.599Z,1006.5
2023-04-15T05:45:24.150Z,1006.5
2023-04-15T05:50:20.663Z,1006.5
2023-04-15T05:52:48.920Z,1006.6
2023-04-15T05:55:17.178Z,1006.6
2023-04-15T05:57:45.438Z,1006.6
2023-04-15T06:00:13.696Z,1006.6
2023-04-15T06:02:41.946Z,1006.6
2023-04-15T06:05:10.210Z,1006.6
2023-04-15T06:07:38.465Z,1006.6
2023-04-15T06:08:53.196Z,1006.6
2023-04-15T06:10:06.736Z,1006.6
2023-04-15T06:12:34.997Z,1006.7
2023-04-15T06:15:03.257Z,1006.7
2023-04-15T06:17:31.506Z,1006.7
2023-04-15T06:22:28.028Z,1006.7
2023-04-15T06:24:56.277Z,1006.7
2023-04-15T06:27:24.541Z,1006.7
2023-04-15T06:29:52.794Z,1006.8
2023-04-15T06:32:21.056Z,1006.9
2023-04-15T06:33:35.780Z,1006.8
2023-04-15T06:34:49.330Z,1006.8
2023-04-15T06:37:17.583Z,1006.8
2023-04-15T06:39:45.844Z,1006.8
2023-04-15T06:42:14.104Z,1006.8
2023-04-15T06:44:42.353Z,1006.8
2023-04-15T06:47:10.610Z,1006.9
2023-04-15T06:49:38.876Z,1006.9
2023-04-15T06:54:35.390Z,1006.9
2023-04-15T06:57:03.643Z,1007
2023-04-15T06:58:18.373Z,1007.1
2023-04-15T06:59:31.923Z,1007.1
2023-04-15T07:02:00.173Z,1007.1
2023-04-15T07:04:28.436Z,1007.1
2023-04-15T07:06:56.688Z,1007.1
2023-04-15T07:09:24.948Z,1007.2
2023-04-15T07:11:53.204Z,1007.2
2023-04-15T07:14:21.465Z,1007.2
2023-04-15T07:16:49.723Z,1007.2
2023-04-15T07:19:17.977Z,1007.2
2023-04-15T07:21:46.233Z,1007.2
2023-04-15T07:24:14.495Z,1007.2
2023-04-15T07:26:42.755Z,1007.2
2023-04-15T07:29:11.011Z,1007.2
2023-04-15T07:31:39.268Z,1007.2
2023-04-15T07:34:07.519Z,1007.2
2023-04-15T07:36:35.782Z,1007.3
2023-04-15T07:39:04.038Z,1007.3
2023-04-15T07:41:32.296Z,1007.3
2023-04-15T07:44:00.555Z,1007.4
2023-04-15T07:46:28.809Z,1007.4
2023-04-15T07:47:43.560Z,1007.4
2023-04-15T07:48:57.102Z,1007.4
2023-04-15T07:51:25.364Z,1007.4
2023-04-15T07:56:21.880Z,1007.4
2023-04-15T07:58:50.136Z,1007.5
2023-04-15T08:01:18.392Z,1007.4
2023-04-15T08:03:46.645Z,1007.5
2023-04-15T08:06:14.908Z,1007.5
2023-04-15T08:08:43.162Z,1007.5
2023-04-15T08:11:11.414Z,1007.5
2023-04-15T08:12:26.197Z,1007.5
2023-04-15T08:13:39.690Z,1007.6
2023-04-15T08:16:07.951Z,1007.6
2023-04-15T08:18:36.213Z,1007.6
2023-04-15T08:21:04.471Z,1007.6
2023-04-15T08:23:32.730Z,1007.7
2023-04-15T08:28:29.235Z,1007.7
2023-04-15T08:30:57.500Z,1007.7
2023-04-15T08:33:25.754Z,1007.7
2023-04-15T08:35:54.008Z,1007.7
2023-04-15T08:37:08.736Z,1007.8
2023-04-15T08:38:22.286Z,1007.8
2023-04-15T08:40:50.541Z,1007.8
2023-04-15T08:43:18.805Z,1007.8
2023-04-15T08:45:47.059Z,1007.7
2023-04-15T08:48:15.319Z,1007.8
2023-04-15T08:50:43.576Z,1007.8
2023-04-15T08:53:11.826Z,1007.8
2023-04-15T08:55:40.092Z,1007.8
2023-04-15T09:00:36.604Z,1007.9
2023-04-15T09:01:51.336Z,1007.8
2023-04-15T09:03:04.878Z,1007.9
2023-04-15T09:05:33.133Z,1007.9
2023-04-15T09:08:01.390Z,1007.9
2023-04-15T09:10:29.648Z,1007.9
2023-04-15T09:12:57.906Z,1007.9
2023-04-15T09:15:26.158Z,1007.9
2023-04-15T09:17:54.418Z,1007.9
2023-04-15T09:20:22.673Z,1007.9
2023-04-15T09:22:50.937Z,1007.9
2023-04-15T09:25:19.189Z,1007.9
2023-04-15T09:26:33.924Z,1008
2023-04-15T09:30:15.956Z,1007.9
2023-04-15T09:32:44.212Z,1007.9
2023-04-15T09:35:12.472Z,1007.9
2023-04-15T09:37:40.722Z,1007.8
2023-04-15T09:40:08.978Z,1007.9
2023-04-15T09:42:37.238Z,1007.9
2023-04-15T09:45:05.503Z,1008
2023-04-15T09:47:33.754Z,1008
2023-04-15T09:50:02.013Z,1008
2023-04-15T09:51:16.736Z,1008
2023-04-15T09:52:30.286Z,1008
2023-04-15T09:54:58.542Z,1008
2023-04-15T09:57:26.798Z,1008
2023-04-15T10:02:23.315Z,1008.1
2023-04-15T10:04:51.567Z,1008.1
2023-04-15T10:07:19.827Z,1008
2023-04-15T10:09:48.083Z,1008.2
2023-04-15T10:12:16.339Z,1008
2023-04-15T10:14:44.594Z,1008.1
2023-04-15T10:15:59.325Z,1008.1
2023-04-15T10:17:12.874Z,1008.2
2023-04-15T10:19:41.133Z,1007.9
2023-04-15T10:22:09.384Z,1008.2
2023-04-15T10:24:37.649Z,1008.2
2023-04-15T10:27:05.898Z,1008.1
2023-04-15T10:29:34.162Z,1008.2
2023-04-15T10:34:30.672Z,1008.1
2023-04-15T10:36:58.922Z,1007.9
2023-04-15T10:39:27.187Z,1007.9
2023-04-15T10:40:41.915Z,1007.9
2023-04-15T10:41:55.458Z,1008.1
2023-04-15T10:44:23.721Z,1008
2023-04-15T10:46:51.971Z,1007.9
2023-04-15T10:49:20.235Z,1008
2023-04-15T10:51:48.491Z,1008
2023-04-15T10:54:16.745Z,1008
2023-04-15T10:56:45.003Z,1008.1
2023-04-15T10:59:13.260Z,1008.1
2023-04-15T11:01:41.512Z,1007.9
2023-04-15T11:05:24.504Z,1008
2023-04-15T11:06:38.044Z,1008
2023-04-15T11:09:06.310Z,1008.2
2023-04-15T11:11:34.566Z,1008.2
2023-04-15T11:14:02.820Z,1008.2
2023-04-15T11:16:31.077Z,1008.1
2023-04-15T11:18:59.327Z,1008.2
2023-04-15T11:21:27.588Z,1008.3
2023-04-15T11:23:55.843Z,1008.3
2023-04-15T11:26:24.107Z,1008.4
2023-04-15T11:28:52.363Z,1008.4
2023-04-15T11:30:07.091Z,1008.4
2023-04-15T11:31:20.633Z,1008.4
2023-04-15T11:36:17.143Z,1008.4
2023-04-15T11:38:45.403Z,1008.5
2023-04-15T11:41:13.662Z,1008.5
2023-04-15T11:43:41.914Z,1008.6
2023-04-15T11:46:10.172Z,1008.6
2023-04-15T11:48:38.426Z,1008.6
2023-04-15T11:51:06.686Z,1008.7
2023-04-15T11:53:34.948Z,1008.8
2023-04-15T11:54:49.673Z,1008.7
2023-04-15T11:56:03.216Z,1008.8
2023-04-15T11:58:31.477Z,1008.8
2023-04-15T12:00:59.737Z,1008.8
2023-04-15T12:03:27.991Z,1008.9
2023-04-15T12:08:24.507Z,1008.9
2023-04-15T12:10:52.756Z,1008.9
2023-04-15T12:13:21.014Z,1008.9
2023-04-15T12:15:49.274Z,1008.9
2023-04-15T12:18:17.524Z,1008.9
2023-04-15T12:19:32.256Z,1009
2023-04-15T12:20:45.808Z,1009
2023-04-15T12:23:14.060Z,1008.9
2023-04-15T12:25:42.316Z,1009
2023-04-15T12:28:10.570Z,1009
2023-04-15T12:30:38.830Z,1009.1
2023-04-15T12:33:07.092Z,1009.1
2023-04-15T12:35:35.342Z,1009.2
2023-04-15T12:40:31.859Z,1009.2
2023-04-15T12:43:00.108Z,1009.3
2023-04-15T12:44:14.842Z,1009.3
2023-04-15T12:45:28.394Z,1009.3
2023-04-15T12:47:56.642Z,1009.3
2023-04-15T12:50:24.905Z,1009.3
2023-04-15T12:52:53.161Z,1009.3
2023-04-15T12:55:21.419Z,1009.4
2023-04-15T12:57:49.670Z,1009.4
2023-04-15T13:00:17.925Z,1009.5
2023-04-15T13:02:46.187Z,1009.5
2023-04-15T13:05:14.441Z,1009.5
2023-04-15T13:07:42.699Z,1009.5
2023-04-15T13:10:10.959Z,1009.5
2023-04-15T13:12:39.216Z,1009.5
2023-04-15T13:15:07.468Z,1009.5
2023-04-15T13:17:35.726Z,1009.6
2023-04-15T13:20:03.986Z,1009.6
2023-04-15T13:22:32.237Z,1009.6
2023-04-15T13:25:00.496Z,1009.6
2023-04-15T13:27:28.752Z,1009.7
2023-04-15T13:29:57.008Z,1009.8
2023-04-15T13:32:25.264Z,1009.8
2023-04-15T13:33:40.008Z,1009.8
2023-04-15T13:34:53.558Z,1009.8
2023-04-15T13:37:21.814Z,1009.8
2023-04-15T13:42:18.328Z,1009.9
2023-04-15T13:44:46.581Z,1009.8
2023-04-15T13:47:14.843Z,1009.9
2023-04-15T13:49:43.099Z,1009.8
2023-04-15T13:52:11.349Z,1009.9
2023-04-15T13:54:39.607Z,1009.9
2023-04-15T13:57:07.869Z,1010
2023-04-15T13:58:22.598Z,1009.9
2023-04-15T13:59:36.140Z,1009.9
2023-04-15T14:02:04.395Z,1009.9
2023-04-15T14:04:32.653Z,1009.9
2023-04-15T14:07:00.908Z,1010
2023-04-15T14:09:29.168Z,1010
2023-04-15T14:14:25.686Z,1010
2023-04-15T14:16:53.940Z,1010.1
2023-04-15T14:19:22.193Z,1010.1
2023-04-15T14:21:50.453Z,1010.1
2023-04-15T14:23:05.183Z,1010.1
2023-04-15T14:24:18.729Z,1010.1
2023-04-15T14:26:46.980Z,1010.1
2023-04-15T14:29:15.240Z,1010.2
2023-04-15T14:31:43.500Z,1010.1
2023-04-15T14:34:11.750Z,1010.2
2023-04-15T14:36:40.012Z,1010.2
2023-04-15T14:39:08.264Z,1010.3
2023-04-15T14:41:36.526Z,1010.3
2023-04-15T14:46:33.034Z,1010.3
2023-04-15T14:47:47.762Z,1010.5
2023-04-15T14:49:01.306Z,1010.5
2023-04-15T14:51:29.566Z,1010.5
2023-04-15T14:53:57.826Z,1010.5
2023-04-15T14:56:26.083Z,1010.5
2023-04-15T14:58:54.335Z,1010.6
2023-04-15T15:01:22.589Z,1010.6
2023-04-15T15:03:50.849Z,1010.7
2023-04-15T15:06:19.109Z,1010.6
2023-04-15T15:08:47.365Z,1010.7
2023-04-15T15:11:15.619Z,1010.7
2023-04-15T15:12:30.351Z,1010.8
2023-04-15T15:16:12.385Z,1010.8
2023-04-15T15:18:40.638Z,1010.9
2023-04-15T15:21:08.893Z,1010.9
2023-04-15T15:23:37.151Z,1010.9
2023-04-15T15:26:05.407Z,1010.9
2023-04-15T15:28:33.666Z,1010.9
2023-04-15T15:31:01.920Z,1010.9
2023-04-15T15:33:30.181Z,1010.9
2023-04-15T15:35:58.435Z,1010.9
2023-04-15T15:37:13.163Z,1011
2023-04-15T15:38:26.715Z,1011
2023-04-15T15:40:54.970Z,1011
2023-04-15T15:43:23.222Z,1011
2023-04-15T15:48:19.742Z,1011.1
2023-04-15T15:50:48.001Z,1011.1
2023-04-15T15:53:16.257Z,1011.2
2023-04-15T15:55:44.515Z,1011.3
2023-04-15T15:58:12.763Z,1011.3
2023-04-15T16:00:41.027Z,1011.3
2023-04-15T16:01:55.755Z,1011.3
2023-04-15T16:03:09.305Z,1011.4
2023-04-15T16:05:37.558Z,1011.3
2023-04-15T16:08:05.817Z,1011.4
2023-04-15T16:10:34.076Z,1011.4
2023-04-15T16:13:02.328Z,1011.4
2023-04-15T16:15:30.589Z,1011.4
2023-04-15T16:20:27.097Z,1011.5
2023-04-15T16:22:55.357Z,1011.5
2023-04-15T16:25:23.613Z,1011.6
2023-04-15T16:26:38.337Z,1011.6
2023-04-15T16:27:51.889Z,1011.6
2023-04-15T16:30:20.146Z,1011.7
2023-04-15T16:32:48.397Z,1011.7
2023-04-15T16:35:16.656Z,1011.7
2023-04-15T16:37:44.915Z,1011.7
2023-04-15T16:40:13.168Z,1011.8
2023-04-15T16:42:41.428Z,1011.8
2023-04-15T16:45:09.689Z,1011.8
2023-04-15T16:47:37.942Z,1011.8
2023-04-15T16:51:20.927Z,1011.8
2023-04-15T16:52:34.477Z,1011.9
2023-04-15T16:55:02.731Z,1011.9
2023-04-15T16:57:30.997Z,1011.9
2023-04-15T16:59:59.242Z,1011.9
2023-04-15T17:02:27.504Z,1012
2023-04-15T17:04:55.760Z,1012
2023-04-15T17:07:24.014Z,1012.1
2023-04-15T17:09:52.274Z,1012.1
2023-04-15T17:12:20.526Z,1012.2
2023-04-15T17:14:48.787Z,1012.2
2023-04-15T17:16:03.517Z,1012.3
2023-04-15T17:17:17.057Z,1012.3
2023-04-15T17:22:13.573Z,1012.3
2023-04-15T17:24:41.835Z,1012.3
2023-04-15T17:27:10.087Z,1012.3
2023-04-15T17:29:38.343Z,1012.3
2023-04-15T17:32:06.603Z,1012.4
2023-04-15T17:34:34.859Z,1012.4
2023-04-15T17:37:03.112Z,1012.5
2023-04-15T17:39:31.374Z,1012.5
2023-04-15T17:40:46.106Z,1012.6
2023-04-15T17:41:59.650Z,1012.6
2023-04-15T17:44:27.912Z,1012.5
2023-04-15T17:46:56.166Z,1012.5
2023-04-15T17:49:24.424Z,1012.6
2023-04-15T17:54:20.936Z,1012.7
2023-04-15T17:56:49.191Z,1012.7
2023-04-15T17:59:17.451Z,1012.7
2023-04-15T18:01:45.703Z,1012.7
2023-04-15T18:04:13.965Z,1012.8
2023-04-15T18:05:28.694Z,1012.9
2023-04-15T18:06:42.241Z,1012.9
2023-04-15T18:09:10.497Z,1013
2023-04-15T18:11:38.751Z,1013
2023-04-15T18:14:07.007Z,1013
2023-04-15T18:16:35.261Z,1013.1
2023-04-15T18:19:03.525Z,1013.1
2023-04-15T18:21:31.776Z,1013.1
2023-04-15T18:26:28.294Z,1013.1
2023-04-15T18:28:56.551Z,1013.2
2023-04-15T18:30:11.276Z,1013.3
2023-04-15T18:31:24.825Z,1013.3
2023-04-15T18:33:53.082Z,1013.3
2023-04-15T18:36:21.341Z,1013.4
2023-04-15T18:38:49.595Z,1013.4
2023-04-15T18:41:17.849Z,1013.4
2023-04-15T18:43:46.105Z,1013.4
2023-04-15T18:46:14.363Z,1013.5
2023-04-15T18:48:42.621Z,1013.5
2023-04-15T18:51:10.881Z,1013.5
2023-04-15T18:53:39.137Z,1013.5
2023-04-15T18:56:07.400Z,1013.5
2023-04-15T18:58:35.650Z,1013.6
2023-04-15T19:01:03.911Z,1013.7
2023-04-15T19:03:32.167Z,1013.7
2023-04-15T19:06:00.427Z,1013.7
2023-04-15T19:08:28.678Z,1013.7
2023-04-15T19:10:56.935Z,1013.8
2023-04-15T19:13:25.196Z,1013.8
2023-04-15T19:15:53.452Z,1013.8
2023-04-15T19:18:21.701Z,1013.8
2023-04-15T19:19:36.453Z,1013.8
2023-04-15T19:20:50.002Z,1013.9
2023-04-15T19:23:18.256Z,1013.9
2023-04-15T19:28:14.774Z,1013.9
2023-04-15T19:30:43.028Z,1014
2023-04-15T19:33:11.294Z,1014
2023-04-15T19:35:39.539Z,1014
2023-04-15T19:38:07.797Z,1014
2023-04-15T19:40:36.055Z,1014.1
2023-04-15T19:43:04.307Z,1014.2
2023-04-15T19:44:19.039Z,1014.2
2023-04-15T19:45:32.583Z,1014.2
2023-04-15T19:48:00.845Z,1014.2
2023-04-15T19:50:29.102Z,1014.3
2023-04-15T19:52:57.353Z,1014.4
2023-04-15T19:55:25.608Z,1014.3
2023-04-15T20:00:22.123Z,1014.3
2023-04-15T20:02:50.386Z,1014.5
2023-04-15T20:05:18.640Z,1014.4
2023-04-15T20:07:46.899Z,1014.4
2023-04-15T20:09:01.630Z,1014.5
2023-04-15T20:10:15.169Z,1014.5
2023-04-15T20:12:43.432Z,1014.5
2023-04-15T20:15:11.686Z,1014.5
2023-04-15T20:17:39.943Z,1014.6
2023-04-15T20:20:08.205Z,1014.6
2023-04-15T20:22:36.460Z,1014.6
2023-04-15T20:25:04.716Z,1014.6
2023-04-15T20:27:32.974Z,1014.6
2023-04-15T20:32:29.489Z,1014.7
2023-04-15T20:33:44.216Z,1014.7
2023-04-15T20:34:57.763Z,1014.7
2023-04-15T20:37:26.020Z,1014.7
2023-04-15T20:39:54.280Z,1014.7
2023-04-15T20:42:22.529Z,1014.7
2023-04-15T20:44:50.795Z,1014.7
2023-04-15T20:47:19.047Z,1014.8
2023-04-15T20:49:47.304Z,1014.8
2023-04-15T20:52:15.562Z,1014.8
2023-04-15T20:54:43.820Z,1014.8
2023-04-15T20:57:12.080Z,1014.9
2023-04-15T20:58:26.809Z,1014.8
2023-04-15T21:02:08.846Z,1014.8
2023-04-15T21:04:37.100Z,1014.9
2023-04-15T21:07:05.357Z,1014.8
2023-04-15T21:09:33.615Z,1014.9
2023-04-15T21:12:01.873Z,1014.9
2023-04-15T21:14:30.125Z,1014.9
2023-04-15T21:16:58.380Z,1014.9
2023-04-15T21:19:26.636Z,1014.9
2023-04-15T21:21:54.902Z,1014.9
2023-04-15T21:23:09.628Z,1014.9
2023-04-15T21:24:23.172Z,1014.9
2023-04-15T21:26:51.432Z,1014.9
2023-04-15T21:29:19.687Z,1015
2023-04-15T21:34:16.255Z,1015
2023-04-15T21:36:44.463Z,1015.1
2023-04-15T21:39:12.715Z,1015.2
2023-04-15T21:41:40.971Z,1015.2
2023-04-15T21:44:09.236Z,1015.2
2023-04-15T21:46:37.487Z,1015.3
2023-04-15T21:47:52.220Z,1015.2
2023-04-15T21:49:05.763Z,1015.3
2023-04-15T21:51:34.019Z,1015.3
2023-04-15T21:54:02.284Z,1015.3
2023-04-15T21:56:30.542Z,1015.4
2023-04-15T21:58:58.799Z,1015.4
2023-04-15T22:01:27.056Z,1015.5
2023-04-15T22:06:23.561Z,1015.4
2023-04-15T22:08:51.826Z,1015.4
2023-04-15T22:11:20.085Z,1015.4
2023-04-15T22:12:34.808Z,1015.4
2023-04-15T22:13:48.357Z,1015.5
2023-04-15T22:16:16.610Z,1015.5
2023-04-15T22:18:44.867Z,1015.4
2023-04-15T22:21:13.133Z,1015.4
2023-04-15T22:23:41.385Z,1015.4
2023-04-15T22:26:09.643Z,1015.4
2023-04-15T22:28:37.897Z,1015.4
2023-04-15T22:31:06.157Z,1015.5
2023-04-15T22:33:34.419Z,1015.5
2023-04-15T22:37:17.401Z,1015.5
2023-04-15T22:38:30.953Z,1015.5
2023-04-15T22:40:59.210Z,1015.5
2023-04-15T22:43:27.464Z,1015.6
2023-04-15T22:45:55.717Z,1015.6
2023-04-15T22:48:23.975Z,1015.6
2023-04-15T22:50:52.233Z,1015.6
2023-04-15T22:53:20.490Z,1015.6
2023-04-15T22:55:48.754Z,1015.7
2023-04-15T22:58:17.008Z,1015.7
2023-04-15T23:00:45.266Z,1015.8
2023-04-15T23:01:59.991Z,1015.7
2023-04-15T23:03:13.541Z,1015.8
2023-04-15T23:08:10.053Z,1015.8
2023-04-15T23:10:38.309Z,1015.8
2023-04-15T23:13:06.565Z,1015.8
2023-04-15T23:15:34.827Z,1015.9
2023-04-15T23:18:03.083Z,1015.9
2023-04-15T23:20:31.336Z,1016
2023-04-15T23:22:59.593Z,1016
2023-04-15T23:25:27.859Z,1016
2023-04-15T23:26:42.585Z,1016
2023-04-15T23:27:56.127Z,1016
2023-04-15T23:30:24.391Z,1016
2023-04-15T23:32:52.645Z,1016.1
2023-04-15T23:35:20.900Z,1016
2023-04-15T23:40:17.420Z,1016.1
2023-04-15T23:42:45.672Z,1016.1
2023-04-15T23:45:13.933Z,1016.1
2023-04-15T23:47:42.190Z,1016.1
2023-04-15T23:50:10.450Z,1016.1
2023-04-15T23:51:25.180Z,1016.1
2023-04-15T23:52:38.720Z,1016.1
2023-04-15T23:55:06.976Z,1016.1
2023-04-15T23:57:35.236Z,1016.1
